Time;durP1;ratioP1;P1;durP2;ratioP2;P2;SDS_P1;SDS_P2;PMS_P1;PMS_P2;Temp;Humidity;BMP_temperature;BMP_pressure;BME280_temperature;BME280_humidity;BME280_pressure;Samples;Min_cycle;Max_cycle;Signal;HPM_P1;HPM_P2
2022/02/21 00:09:04;;;;;;;6.97;1.40;;;;;;;8.67;100.00;99261.72;20820641;28;20065;-72
2022/02/21 00:19:05;;;;;;;7.10;1.42;;;;;;;8.67;100.00;99235.63;20820873;28;20091;-73
2022/02/21 00:29:08;;;;;;;5.03;1.20;;;;;;;8.52;100.00;99225.59;20821037;28;20706;-73
2022/02/21 00:39:10;;;;;;;5.72;1.30;;;;;;;8.50;100.00;99183.06;20819188;28;20052;-73
2022/02/21 00:49:13;;;;;;;14.75;1.50;;;;;;;8.48;100.00;99165.69;20818475;28;20693;-73
2022/02/21 00:59:14;;;;;;;5.70;1.20;;;;;;;8.43;100.00;99120.63;20818153;28;20049;-74
2022/02/21 01:09:16;;;;;;;6.13;1.40;;;;;;;8.43;100.00;99106.69;20817249;28;20049;-74
2022/02/21 01:19:17;;;;;;;7.15;1.20;;;;;;;8.58;100.00;99093.25;20817322;28;20523;-74
2022/02/21 01:29:19;;;;;;;5.45;1.05;;;;;;;8.64;100.00;99068.75;20816572;28;20576;-74
2022/02/21 01:39:21;;;;;;;5.13;1.02;;;;;;;8.60;100.00;99023.63;20815159;28;20046;-73
2022/02/21 01:49:22;;;;;;;7.28;1.15;;;;;;;8.72;100.00;99019.81;20814832;28;20073;-74
2022/02/21 01:59:24;;;;;;;9.75;1.20;;;;;;;8.69;100.00;98983.34;20825050;28;20140;-75
2022/02/21 02:09:25;;;;;;;5.38;0.95;;;;;;;8.81;100.00;98976.88;20826223;28;20103;-76
2022/02/21 02:19:27;;;;;;;4.75;1.00;;;;;;;8.94;98.58;98937.28;20830009;28;20041;-76
2022/02/21 02:29:28;;;;;;;3.05;0.82;;;;;;;9.22;95.70;98905.06;20829136;28;20103;-76
2022/02/21 02:39:30;;;;;;;3.53;0.70;;;;;;;8.62;100.00;99154.88;20828252;28;20513;-74
2022/02/21 02:49:31;;;;;;;6.53;0.77;;;;;;;5.99;100.00;99146.88;20827074;28;20131;-74
2022/02/21 02:59:33;;;;;;;3.75;0.60;;;;;;;5.79;100.00;99236.34;20827529;28;20042;-72
2022/02/21 03:09:34;;;;;;;6.50;0.82;;;;;;;5.54;100.00;99220.28;20824485;28;20418;-73
2022/02/21 03:19:36;;;;;;;6.35;0.80;;;;;;;5.74;92.54;99181.03;20824969;28;20054;-74
2022/02/21 03:29:37;;;;;;;8.68;0.95;;;;;;;5.96;85.45;99154.75;20824163;28;20099;-73
2022/02/21 03:39:39;;;;;;;10.02;1.50;;;;;;;5.97;90.14;99162.50;20823089;28;20483;-72
2022/02/21 03:49:40;;;;;;;9.88;1.90;;;;;;;6.14;88.26;99177.81;20822819;28;20050;-72
2022/02/21 03:59:42;;;;;;;6.63;2.03;;;;;;;6.21;86.06;99218.41;20821792;28;20045;-71
2022/02/21 04:09:43;;;;;;;5.47;1.33;;;;;;;6.35;82.20;99224.22;20821190;28;20619;-71
2022/02/21 04:19:46;;;;;;;13.18;2.22;;;;;;;6.33;81.56;99270.19;20820265;28;20630;-69
2022/02/21 04:29:47;;;;;;;8.55;1.65;;;;;;;6.35;77.70;99258.03;20820101;28;20438;-70
2022/02/21 04:39:49;;;;;;;11.82;2.97;;;;;;;6.09;76.55;99255.00;20818372;28;20060;-69
2022/02/21 04:49:50;;;;;;;10.85;1.90;;;;;;;6.00;77.06;99305.38;20818453;28;20107;-70
2022/02/21 04:59:52;;;;;;;11.82;1.98;;;;;;;6.08;75.25;99326.88;20809844;28;20107;-70
2022/02/21 05:09:54;;;;;;;13.15;2.53;;;;;;;5.98;75.46;99355.63;20816359;28;20053;-69
2022/02/21 05:19:55;;;;;;;13.50;2.40;;;;;;;5.86;72.53;99357.47;20816271;28;20049;-69
2022/02/21 05:30:07;;;;;;;15.02;2.55;;;;;;;5.79;74.51;99384.41;20816050;28;20057;-69
2022/02/21 05:40:09;;;;;;;15.68;3.58;;;;;;;5.67;75.04;99366.41;20836342;28;20049;-70
2022/02/21 05:50:10;;;;;;;15.13;2.55;;;;;;;5.62;72.50;99347.41;20842637;28;20426;-69
2022/02/21 06:00:12;;;;;;;14.20;2.92;;;;;;;5.38;73.83;99365.00;20842951;28;20072;-69
2022/02/21 06:10:14;;;;;;;12.52;2.65;;;;;;;5.29;74.41;99416.16;20924853;28;20076;-69
2022/02/21 06:20:16;;;;;;;19.65;2.22;;;;;;;5.14;73.10;99412.84;20924230;28;20095;-68
2022/02/21 06:30:17;;;;;;;16.95;2.53;;;;;;;5.12;71.54;99432.72;20923133;28;20110;-69
2022/02/21 06:40:19;;;;;;;14.20;2.10;;;;;;;5.17;69.35;99453.44;20921195;28;20053;-68
2022/02/21 06:50:21;;;;;;;14.00;2.55;;;;;;;5.10;70.64;99447.47;20908429;28;20057;-69
2022/02/21 07:00:23;;;;;;;13.23;2.67;;;;;;;5.02;70.18;99454.44;20906749;28;20102;-69
2022/02/21 07:10:24;;;;;;;20.98;2.72;;;;;;;5.13;70.24;99450.03;20902322;28;20095;-69
2022/02/21 07:20:26;;;;;;;15.75;2.60;;;;;;;5.16;70.09;99472.50;20825411;28;20046;-69
2022/02/21 07:30:30;;;;;;;22.15;2.95;;;;;;;5.31;71.50;99492.25;20856530;28;20640;-68
2022/02/21 07:40:32;;;;;;;17.45;3.10;;;;;;;5.51;71.60;99489.47;20905035;28;20073;-69
2022/02/21 07:50:35;;;;;;;24.58;4.20;;;;;;;5.79;70.01;99522.06;20903883;28;20110;-68
2022/02/21 08:00:37;;;;;;;18.55;3.10;;;;;;;6.08;68.67;99513.13;20902111;28;20111;-68
2022/02/21 08:10:38;;;;;;;19.48;2.85;;;;;;;6.14;68.60;99533.88;20793072;28;20407;-68
2022/02/21 08:20:40;;;;;;;22.33;3.75;;;;;;;6.29;69.10;99549.28;20731542;28;20086;-69
2022/02/21 08:30:41;;;;;;;18.13;2.60;;;;;;;6.51;67.14;99526.44;20763726;28;20114;-69
2022/02/21 08:40:43;;;;;;;15.70;3.20;;;;;;;6.63;64.69;99533.25;20892163;28;20439;-69
2022/02/21 08:50:44;;;;;;;8.13;2.15;;;;;;;6.99;62.03;99562.22;20884803;28;20053;-68
2022/02/21 09:00:46;;;;;;;8.65;1.50;;;;;;;6.84;64.27;99616.19;20890330;28;20490;-73
2022/02/21 09:10:52;;;;;;;9.57;1.20;;;;;;;5.95;75.97;99613.75;20887542;28;20076;-74
2022/02/21 09:20:55;;;;;;;4.90;1.02;;;;;;;5.76;80.53;99646.78;20841632;28;20045;-74
2022/02/21 09:30:56;;;;;;;8.55;1.50;;;;;;;4.41;96.73;99666.53;20888828;28;20053;-70
2022/02/21 09:40:58;;;;;;;6.18;1.30;;;;;;;4.74;98.29;99658.66;20889802;28;20091;-70
2022/02/21 09:51:01;;;;;;;11.25;2.30;;;;;;;5.08;97.68;99663.72;20889567;28;20135;-71
2022/02/21 10:01:03;;;;;;;9.02;1.45;;;;;;;5.46;94.41;99660.00;20888066;28;20049;-72
2022/02/21 10:11:04;;;;;;;9.60;1.42;;;;;;;5.75;90.37;99646.78;20886918;28;20110;-72
2022/02/21 10:21:06;;;;;;;10.70;2.10;;;;;;;6.47;83.76;99643.53;20898453;28;20048;-72
2022/02/21 10:31:09;;;;;;;9.85;2.10;;;;;;;6.60;81.61;99616.50;20902594;28;20049;-73
2022/02/21 10:41:11;;;;;;;10.65;1.83;;;;;;;7.11;75.36;99620.16;20902381;28;20152;-73
2022/02/21 10:51:12;;;;;;;14.88;2.78;;;;;;;6.98;74.01;99616.00;20901878;28;20049;-73
2022/02/21 11:01:14;;;;;;;8.80;1.65;;;;;;;7.36;70.46;99615.44;20900502;28;20114;-73
2022/02/21 11:11:19;;;;;;;8.27;1.48;;;;;;;7.34;65.17;99609.41;20896699;28;20126;-73
2022/02/21 11:21:21;;;;;;;;;;;;;;;7.10;64.14;99623.66;20899903;28;20110;-75
2022/02/21 11:31:31;;;;;;;12.82;2.30;;;;;;;7.29;63.48;99572.19;20897077;28;19966;-74
2022/02/21 11:41:35;;;;;;;9.60;1.60;;;;;;;7.11;63.93;99560.28;20892422;28;20052;-73
2022/02/21 11:51:41;;;;;;;7.78;1.65;;;;;;;7.00;63.35;99561.34;20896849;28;20053;-72
2022/02/21 12:02:02;;;;;;;7.90;1.75;;;;;;;7.22;62.38;99520.22;20896263;28;20414;-72
2022/02/21 12:12:25;;;;;;;12.23;2.13;;;;;;;7.28;63.14;99544.44;20886643;28;20057;-72
2022/02/21 12:22:28;;;;;;;6.43;1.60;;;;;;;7.18;64.58;99538.47;20891101;28;20466;-72
2022/02/21 12:32:29;;;;;;;11.25;2.10;;;;;;;7.26;64.79;99512.31;20891933;28;20052;-72
2022/02/21 12:42:31;;;;;;;9.90;2.05;;;;;;;7.34;67.09;99486.19;20891798;28;20049;-72
2022/02/21 12:52:32;;;;;;;11.80;2.08;;;;;;;7.19;65.99;99528.94;20891511;28;20060;-73
2022/02/21 13:02:34;;;;;;;14.52;1.88;;;;;;;7.29;67.24;99482.78;20890261;28;20476;-72
2022/02/21 13:12:37;;;;;;;10.63;2.33;;;;;;;7.14;69.34;99483.91;20880602;28;20076;-72
2022/02/21 13:22:41;;;;;;;9.65;2.10;;;;;;;7.16;68.72;99482.97;20889521;28;20045;-73
2022/02/21 13:32:43;;;;;;;13.02;2.70;;;;;;;7.24;70.88;99459.44;20888518;28;20049;-73
2022/02/21 13:42:45;;;;;;;15.80;4.03;;;;;;;7.45;70.77;99443.41;20889487;28;20064;-73
2022/02/21 13:52:51;;;;;;;11.60;2.50;;;;;;;7.28;71.24;99432.47;20894447;28;20053;-73
2022/02/21 14:02:56;;;;;;;13.68;2.35;;;;;;;7.27;72.00;99407.28;20903827;28;20084;-72
2022/02/21 14:13:00;;;;;;;13.90;2.03;;;;;;;7.29;74.09;99408.13;20899870;28;20057;-72
2022/02/21 14:23:01;;;;;;;16.58;2.50;;;;;;;7.19;73.34;99424.81;20882914;28;20059;-69
2022/02/21 14:33:03;;;;;;;9.60;1.90;;;;;;;7.32;72.68;99409.81;20891871;28;20439;-68
2022/02/21 14:43:11;;;;;;;15.63;2.40;;;;;;;7.34;73.69;99406.31;20902671;28;20056;-68
2022/02/21 14:53:12;;;;;;;11.98;2.33;;;;;;;7.06;79.32;99415.50;20901458;28;20509;-68
2022/02/21 15:03:14;;;;;;;10.80;2.10;;;;;;;6.86;83.39;99403.69;20855119;28;20053;-69
2022/02/21 15:13:15;;;;;;;12.15;2.42;;;;;;;6.59;86.92;99386.78;20777969;28;20423;-69
2022/02/21 15:23:17;;;;;;;16.38;2.67;;;;;;;6.43;91.79;99414.75;20776874;28;20057;-70
2022/02/21 15:33:18;;;;;;;20.23;2.47;;;;;;;6.30;94.80;99415.81;20785484;28;20669;-69
2022/02/21 15:43:20;;;;;;;17.10;2.38;;;;;;;6.27;95.10;99428.84;20815275;28;20057;-69
2022/02/21 15:53:21;;;;;;;13.52;2.63;;;;;;;6.27;94.80;99415.84;20813403;28;20111;-69
2022/02/21 16:03:24;;;;;;;13.25;2.92;;;;;;;6.35;94.13;99440.00;20812031;28;20050;-69
2022/02/21 16:13:26;;;;;;;11.73;2.08;;;;;;;6.33;95.22;99430.53;20811345;28;20107;-69
2022/02/21 16:23:28;;;;;;;13.90;2.80;;;;;;;6.37;97.44;99443.47;20811528;28;20053;-69
2022/02/21 16:33:31;;;;;;;12.50;2.58;;;;;;;6.28;98.48;99448.78;20810632;28;20049;-69
2022/02/21 16:43:33;;;;;;;16.90;2.17;;;;;;;6.30;98.91;99466.94;20809400;28;20045;-71
2022/02/21 16:53:34;;;;;;;15.90;2.55;;;;;;;6.36;98.50;99503.25;20808581;28;20057;-70
2022/02/21 17:03:36;;;;;;;12.27;2.85;;;;;;;6.34;98.83;99511.09;20807764;28;20403;-69
2022/02/21 17:13:38;;;;;;;13.48;2.40;;;;;;;6.37;98.58;99537.06;20805212;28;20131;-71
2022/02/21 17:23:39;;;;;;;9.27;2.28;;;;;;;6.47;98.46;99574.19;20808246;28;20115;-70
2022/02/21 17:33:41;;;;;;;10.00;2.03;;;;;;;6.47;98.25;99604.50;20805433;28;20080;-73
2022/02/21 17:43:43;;;;;;;7.85;1.92;;;;;;;6.59;96.79;99649.47;20798263;28;20048;-70
2022/02/21 17:53:44;;;;;;;11.63;2.47;;;;;;;6.81;92.89;99694.31;20805931;28;20053;-71
2022/02/21 18:03:48;;;;;;;11.40;1.95;;;;;;;6.92;92.00;99726.25;20805426;28;20471;-70
2022/02/21 18:13:49;;;;;;;7.90;1.60;;;;;;;6.88;89.00;99758.38;20787687;28;20199;-70
2022/02/21 18:23:51;;;;;;;10.82;2.22;;;;;;;6.67;89.70;99795.91;20716166;28;20053;-70
2022/02/21 18:33:52;;;;;;;7.78;1.80;;;;;;;6.46;88.52;99816.91;20636742;28;20074;-70
2022/02/21 18:43:54;;;;;;;7.07;1.27;;;;;;;6.42;89.50;99842.09;20646486;28;20099;-70
2022/02/21 18:53:56;;;;;;;5.40;1.05;;;;;;;6.25;92.58;99869.06;20656420;28;20050;-70
2022/02/21 19:04:01;;;;;;;5.95;1.35;;;;;;;6.02;93.18;99898.66;20643215;28;20482;-70
2022/02/21 19:14:03;;;;;;;10.35;1.60;;;;;;;6.01;91.77;99904.72;20651518;28;20046;-70
2022/02/21 19:24:06;;;;;;;8.68;1.67;;;;;;;5.89;92.49;99943.72;20642163;28;20050;-70
2022/02/21 19:34:07;;;;;;;7.88;1.40;;;;;;;5.91;89.39;99948.09;20647577;28;20196;-69
2022/02/21 19:44:10;;;;;;;7.85;1.55;;;;;;;5.84;90.00;99990.50;20649560;28;20046;-69
2022/02/21 19:54:12;;;;;;;10.80;1.65;;;;;;;5.79;89.47;100018.22;20646279;28;20058;-70
2022/02/21 20:04:16;;;;;;;15.60;2.40;;;;;;;5.80;89.76;100069.34;20645415;28;20043;-70
2022/02/21 20:14:17;;;;;;;6.97;1.60;;;;;;;5.86;89.49;100105.69;20647619;28;20101;-69
2022/02/21 20:24:18;;;;;;;12.35;3.78;;;;;;;5.94;88.84;100112.63;20637799;28;20101;-69
2022/02/21 20:34:20;;;;;;;20.08;6.43;;;;;;;5.72;92.58;100158.53;20643204;28;20109;-69
2022/02/21 20:44:22;;;;;;;12.88;3.47;;;;;;;5.78;91.54;100189.69;20638037;28;20550;-70
2022/02/21 20:54:23;;;;;;;12.00;3.17;;;;;;;5.94;91.45;100222.66;20642760;28;20576;-70
2022/02/21 21:04:25;;;;;;;12.40;4.13;;;;;;;6.14;88.98;100246.91;20640844;28;20403;-69
2022/02/21 21:14:28;;;;;;;14.50;3.83;;;;;;;6.16;88.77;100241.72;20643662;28;20513;-68
2022/02/21 21:24:29;;;;;;;12.77;3.58;;;;;;;6.22;89.00;100259.88;20640644;28;20042;-68
2022/02/21 21:34:31;;;;;;;13.10;3.60;;;;;;;6.20;89.66;100253.84;20642824;28;20400;-69
2022/02/21 21:44:32;;;;;;;12.00;3.10;;;;;;;6.30;87.50;100260.75;20639248;28;20474;-69
2022/02/21 21:54:34;;;;;;;12.40;2.65;;;;;;;6.33;86.12;100285.91;20637819;28;20062;-69
2022/02/21 22:04:36;;;;;;;14.38;2.97;;;;;;;6.23;85.87;100305.84;20634770;28;20194;-69
2022/02/21 22:14:37;;;;;;;10.82;2.00;;;;;;;6.22;83.63;100329.22;20759937;28;20065;-69
2022/02/21 22:24:39;;;;;;;10.25;2.65;;;;;;;5.93;86.96;100344.78;20821331;28;20045;-69
2022/02/21 22:34:40;;;;;;;7.72;2.00;;;;;;;6.09;83.24;100369.94;20820255;28;20054;-69
2022/02/21 22:44:44;;;;;;;9.80;2.30;;;;;;;6.11;84.17;100376.00;20820677;28;20049;-68
2022/02/21 22:54:46;;;;;;;10.52;2.50;;;;;;;6.21;83.89;100385.56;20819356;28;20123;-69
2022/02/21 23:04:47;;;;;;;10.25;2.17;;;;;;;6.30;84.27;100398.56;20818342;28;20042;-68
2022/02/21 23:14:49;;;;;;;12.93;1.85;;;;;;;6.20;84.93;100422.81;20825039;28;20052;-69
2022/02/21 23:24:50;;;;;;;12.13;2.05;;;;;;;6.12;85.38;100432.31;20823028;28;20510;-69
2022/02/21 23:34:52;;;;;;;12.02;1.88;;;;;;;6.11;86.29;100435.78;20823201;28;20083;-68
2022/02/21 23:44:53;;;;;;;9.10;1.77;;;;;;;6.04;85.44;100441.84;20823326;28;20537;-68
2022/02/21 23:54:55;;;;;;;9.43;1.95;;;;;;;5.86;88.05;100453.88;20818167;28;20052;-68
